KBNL/BNL METAR and TAF weather

Enter ICAO airport designator
Station Type Date Time Source
KBNL METAR 2023/02/05 23:15 UTC NOAA

KBNL 052315Z AUTO 00000KT 10SM CLR 12/09 A3013 RMK AO2


Station Type Date Time Source
KBNL Decoded METAR 2023/02/05 23:15 UTC NOAA

Station name not available
Feb 05, 2023 - 06:15 PM EST / 2023.02.05 2315 UTC
Wind: Calm:0
Visibility: 10 mile(s):0
Sky conditions: clear
Temperature: 53 F (12 C)
Dew Point: 48 F (9 C)
Relative Humidity: 81%
Pressure (altimeter): 30.13 in. Hg (1020 hPa)
ob: KBNL 052315Z AUTO 00000KT 10SM CLR 12/09 A3013 RMK AO2
cycle: 23

Station Type Date Time Source
KBNL TAF UTC NOAA

Error!

Example: see airport list